Time;durP1;ratioP1;P1;durP2;ratioP2;P2;SDS_P1;SDS_P2;PMS_P1;PMS_P2;Temp;Humidity;BMP_temperature;BMP_pressure;BME280_temperature;BME280_humidity;BME280_pressure;Samples;Min_cycle;Max_cycle;Signal;HPM_P1;HPM_P2
2022/01/04 00:01:16;;;;;;;;;;;9.50;99.90;;;;;;5052780;28;20374;-70
2022/01/04 00:03:42;;;;;;;;;;;9.50;99.90;;;;;;5057530;28;19913;-71
2022/01/04 00:06:08;;;;;;;;;;;9.50;99.90;;;;;;5057648;28;19909;-70
2022/01/04 00:08:33;;;;;;;;;;;9.40;99.90;;;;;;5057576;28;20272;-71
2022/01/04 00:11:43;;;;;;;;;;;9.50;99.90;;;;;;5048551;28;19913;-70
2022/01/04 00:13:50;;;;;;;;;;;9.40;99.90;;;;;;5037942;28;19924;-70
2022/01/04 00:16:16;;;;;;;;;;;9.40;99.90;;;;;;5028927;28;19917;-70
2022/01/04 00:18:41;;;;;;;;;;;9.30;99.90;;;;;;5028369;28;20430;-70
2022/01/04 00:21:07;;;;;;;;;;;9.30;99.90;;;;;;5029812;28;19920;-71
2022/01/04 00:23:32;;;;;;;;;;;9.20;99.90;;;;;;5048446;28;19909;-68
2022/01/04 00:25:58;;;;;;;;;;;9.20;99.90;;;;;;5047982;28;19913;-71
2022/01/04 00:28:24;;;;;;;;;;;9.20;99.90;;;;;;5041095;28;19914;-71
2022/01/04 00:30:50;;;;;;;;;;;9.20;99.90;;;;;;5009626;28;19947;-72
2022/01/04 00:33:17;;;;;;;;;;;9.20;99.90;;;;;;5031901;28;19909;-70
2022/01/04 00:35:42;;;;;;;;;;;9.30;99.90;;;;;;5027659;28;19913;-70
2022/01/04 00:38:08;;;;;;;;;;;9.20;99.90;;;;;;5028043;28;19920;-71
2022/01/04 00:40:34;;;;;;;;;;;9.20;99.90;;;;;;5026275;28;19909;-68
2022/01/04 00:43:00;;;;;;;;;;;9.20;99.90;;;;;;5034038;28;19921;-69
2022/01/04 00:45:26;;;;;;;;;;;9.20;99.90;;;;;;5027184;28;19924;-71
2022/01/04 00:50:23;;;;;;;;;;;9.20;99.90;;;;;;5036129;28;19916;-69
2022/01/04 00:52:48;;;;;;;;;;;9.10;99.90;;;;;;5047443;28;19992;-74
2022/01/04 00:55:14;;;;;;;;;;;9.10;99.90;;;;;;5029215;28;19924;-70
2022/01/04 00:57:40;;;;;;;;;;;9.20;99.90;;;;;;5040246;28;20393;-70
2022/01/04 01:00:06;;;;;;;;;;;9.10;99.90;;;;;;5036870;28;19958;-70
2022/01/04 01:02:31;;;;;;;;;;;9.10;99.90;;;;;;5037774;28;20008;-70
2022/01/04 01:04:57;;;;;;;;;;;9.10;99.90;;;;;;5029129;28;19960;-70
2022/01/04 01:07:22;;;;;;;;;;;9.00;99.90;;;;;;5036858;28;19960;-70
2022/01/04 01:10:28;;;;;;;;;;;9.00;99.90;;;;;;5047147;28;19916;-70
2022/01/04 01:12:33;;;;;;;;;;;9.00;99.90;;;;;;5045806;28;20012;-69
2022/01/04 01:14:59;;;;;;;;;;;9.00;99.90;;;;;;5039569;28;20386;-70
2022/01/04 01:17:24;;;;;;;;;;;9.00;99.90;;;;;;5032878;28;20015;-70
2022/01/04 01:19:50;;;;;;;;;;;9.00;99.90;;;;;;5012209;28;19916;-72
2022/01/04 01:22:15;;;;;;;;;;;9.00;99.90;;;;;;5028158;28;19917;-73
2022/01/04 01:24:41;;;;;;;;;;;8.90;99.90;;;;;;5029026;28;20328;-70
2022/01/04 01:27:06;;;;;;;;;;;8.90;99.90;;;;;;5046776;28;19962;-69
2022/01/04 01:29:32;;;;;;;;;;;8.90;99.90;;;;;;5047837;28;19929;-69
2022/01/04 01:31:57;;;;;;;;;;;8.90;99.90;;;;;;5042945;28;19913;-70
2022/01/04 01:34:23;;;;;;;;;;;8.90;99.90;;;;;;5027770;28;19913;-70
2022/01/04 01:36:49;;;;;;;;;;;8.90;99.90;;;;;;5033055;28;19952;-72
2022/01/04 01:39:14;;;;;;;;;;;8.90;99.90;;;;;;5025453;28;19909;-75
2022/01/04 01:41:40;;;;;;;;;;;8.90;99.90;;;;;;5030851;28;20425;-70
2022/01/04 01:44:05;;;;;;;;;;;8.90;99.90;;;;;;5027984;28;20357;-69
2022/01/04 01:46:31;;;;;;;;;;;9.00;99.90;;;;;;5037481;28;19913;-71
2022/01/04 01:48:56;;;;;;;;;;;9.00;99.90;;;;;;5029694;28;19914;-71
2022/01/04 01:51:23;;;;;;;;;;;9.00;99.90;;;;;;5025950;28;19952;-71
2022/01/04 01:53:49;;;;;;;;;;;9.00;99.90;;;;;;5009488;28;20370;-72
2022/01/04 01:56:14;;;;;;;;;;;9.00;99.90;;;;;;5026285;28;19924;-73
2022/01/04 01:58:39;;;;;;;;;;;9.00;99.90;;;;;;5040392;28;20166;-71
2022/01/04 02:01:05;;;;;;;;;;;9.00;99.90;;;;;;5027829;28;20396;-72
2022/01/04 02:03:30;;;;;;;;;;;9.00;99.90;;;;;;5026761;28;19928;-72
2022/01/04 02:05:56;;;;;;;;;;;9.00;99.90;;;;;;5026164;28;19914;-71
2022/01/04 02:08:22;;;;;;;;;;;9.00;99.90;;;;;;5026579;28;19987;-72
2022/01/04 02:10:47;;;;;;;;;;;9.00;99.90;;;;;;5008242;28;19921;-70
2022/01/04 02:13:13;;;;;;;;;;;9.00;99.90;;;;;;5045696;28;20007;-70
2022/01/04 02:15:39;;;;;;;;;;;9.00;99.90;;;;;;5043133;28;19935;-70
2022/01/04 02:18:06;;;;;;;;;;;9.00;99.90;;;;;;5029718;28;19940;-68
2022/01/04 02:20:31;;;;;;;;;;;9.00;99.90;;;;;;5027126;28;19970;-69
2022/01/04 02:22:57;;;;;;;;;;;8.90;99.90;;;;;;5026901;28;20012;-70
2022/01/04 02:25:22;;;;;;;;;;;8.90;99.90;;;;;;5024371;28;20267;-76
2022/01/04 02:27:48;;;;;;;;;;;8.90;99.90;;;;;;5025486;28;20293;-69
2022/01/04 02:30:16;;;;;;;;;;;8.90;99.90;;;;;;5043993;28;19916;-70
2022/01/04 02:32:42;;;;;;;;;;;9.00;99.90;;;;;;5041385;28;19912;-70
2022/01/04 02:35:07;;;;;;;;;;;8.90;99.90;;;;;;5048766;28;20351;-69
2022/01/04 02:37:33;;;;;;;;;;;8.90;99.90;;;;;;5028982;28;19940;-70
2022/01/04 02:39:58;;;;;;;;;;;8.90;99.90;;;;;;5038882;28;19913;-70
2022/01/04 02:42:24;;;;;;;;;;;8.90;99.90;;;;;;5038393;28;19925;-73
2022/01/04 02:44:49;;;;;;;;;;;8.90;99.90;;;;;;5011989;28;20430;-73
2022/01/04 02:47:15;;;;;;;;;;;8.90;99.90;;;;;;5030847;28;19913;-72
2022/01/04 02:49:41;;;;;;;;;;;8.90;99.90;;;;;;5046866;28;19917;-69
2022/01/04 02:52:06;;;;;;;;;;;8.90;99.90;;;;;;5037641;28;19985;-70
2022/01/04 02:54:32;;;;;;;;;;;8.90;99.90;;;;;;5028969;28;19909;-71
2022/01/04 02:56:57;;;;;;;;;;;8.90;99.90;;;;;;5029615;28;20329;-69
2022/01/04 02:59:23;;;;;;;;;;;8.90;99.90;;;;;;5012582;28;19959;-70
2022/01/04 03:01:48;;;;;;;;;;;8.90;99.90;;;;;;5045656;28;19917;-70
2022/01/04 03:04:14;;;;;;;;;;;8.90;99.90;;;;;;5048345;28;20260;-69
2022/01/04 03:06:39;;;;;;;;;;;8.90;99.90;;;;;;5042786;28;19924;-70
2022/01/04 03:09:05;;;;;;;;;;;9.00;99.90;;;;;;5028632;28;20291;-70
2022/01/04 03:11:31;;;;;;;;;;;8.90;99.90;;;;;;5029621;28;19923;-71
2022/01/04 03:13:57;;;;;;;;;;;8.90;99.90;;;;;;5029263;28;19909;-70
2022/01/04 03:16:22;;;;;;;;;;;8.90;99.90;;;;;;5029536;28;19928;-75
2022/01/04 03:19:05;;;;;;;;;;;8.90;99.90;;;;;;5011616;28;19913;-70
2022/01/04 03:21:35;;;;;;;;;;;8.90;99.90;;;;;;5029739;28;19921;-72
2022/01/04 03:24:02;;;;;;;;;;;8.90;99.90;;;;;;5029192;28;19926;-70
2022/01/04 03:26:27;;;;;;;;;;;8.90;99.90;;;;;;5009500;28;19913;-70
2022/01/04 03:28:53;;;;;;;;;;;8.90;99.90;;;;;;5028613;28;19914;-69
2022/01/04 03:31:20;;;;;;;;;;;8.80;99.90;;;;;;5009987;28;19943;-70
2022/01/04 03:33:45;;;;;;;;;;;8.90;99.90;;;;;;5032978;28;19936;-70
2022/01/04 03:36:10;;;;;;;;;;;8.80;99.90;;;;;;5040228;28;20374;-71
2022/01/04 03:38:36;;;;;;;;;;;8.90;99.90;;;;;;5044546;28;19916;-71
2022/01/04 03:41:02;;;;;;;;;;;8.90;99.90;;;;;;5047231;28;20062;-70
2022/01/04 03:43:28;;;;;;;;;;;8.90;99.90;;;;;;5064042;28;20365;-70
2022/01/04 03:45:53;;;;;;;;;;;8.90;99.90;;;;;;5055054;28;19920;-69
2022/01/04 03:48:19;;;;;;;;;;;8.90;99.90;;;;;;5053755;28;19912;-70
2022/01/04 03:50:44;;;;;;;;;;;8.90;99.90;;;;;;5051409;28;19983;-73
2022/01/04 03:53:10;;;;;;;;;;;8.90;99.90;;;;;;5032507;28;20003;-70
2022/01/04 03:55:35;;;;;;;;;;;9.00;99.90;;;;;;5042596;28;19920;-72
2022/01/04 03:58:01;;;;;;;;;;;9.00;99.90;;;;;;5044376;28;19967;-69
2022/01/04 04:00:27;;;;;;;;;;;9.00;99.90;;;;;;5031826;28;20008;-71
2022/01/04 04:02:52;;;;;;;;;;;9.00;99.90;;;;;;5049260;28;19913;-69
2022/01/04 04:05:18;;;;;;;;;;;8.90;99.90;;;;;;5035393;28;19917;-69
2022/01/04 04:07:43;;;;;;;;;;;8.80;99.90;;;;;;5012223;28;19917;-70
2022/01/04 04:10:09;;;;;;;;;;;8.90;99.90;;;;;;5029312;28;19909;-70
2022/01/04 04:12:35;;;;;;;;;;;8.90;99.90;;;;;;5029205;28;20310;-70
2022/01/04 04:15:04;;;;;;;;;;;8.80;99.90;;;;;;5035972;28;20455;-73
2022/01/04 04:17:32;;;;;;;;;;;8.90;99.90;;;;;;5048481;28;19987;-70
2022/01/04 04:19:58;;;;;;;;;;;8.90;99.90;;;;;;5049550;28;19955;-70
2022/01/04 04:22:23;;;;;;;;;;;8.80;99.90;;;;;;5048521;28;19916;-69
2022/01/04 04:24:49;;;;;;;;;;;8.80;99.90;;;;;;5049178;28;19970;-69
2022/01/04 04:27:14;;;;;;;;;;;8.80;99.90;;;;;;5028033;28;19917;-71
2022/01/04 04:29:40;;;;;;;;;;;8.80;99.90;;;;;;5017918;28;19924;-70
2022/01/04 04:32:06;;;;;;;;;;;8.70;99.90;;;;;;5035498;28;19960;-69
2022/01/04 04:34:31;;;;;;;;;;;8.70;99.90;;;;;;5031019;28;20235;-70
2022/01/04 04:36:57;;;;;;;;;;;8.70;99.90;;;;;;5044216;28;20602;-70
2022/01/04 04:39:22;;;;;;;;;;;8.70;99.90;;;;;;5047391;28;19913;-70
2022/01/04 04:41:49;;;;;;;;;;;8.70;99.90;;;;;;5049590;28;20313;-68
2022/01/04 04:44:15;;;;;;;;;;;8.70;99.90;;;;;;5035861;28;19912;-71
2022/01/04 04:46:40;;;;;;;;;;;8.80;99.90;;;;;;5035441;28;20520;-69
2022/01/04 04:49:06;;;;;;;;;;;8.80;99.90;;;;;;5041542;28;19917;-68
2022/01/04 04:51:32;;;;;;;;;;;8.90;99.90;;;;;;5046121;28;19913;-69
2022/01/04 04:53:57;;;;;;;;;;;8.90;99.90;;;;;;5030361;28;20010;-70
2022/01/04 04:56:23;;;;;;;;;;;8.90;99.90;;;;;;5028363;28;19923;-70
2022/01/04 04:58:48;;;;;;;;;;;8.80;99.90;;;;;;5037322;28;19964;-68
2022/01/04 05:01:14;;;;;;;;;;;8.80;99.90;;;;;;5028493;28;20124;-72
2022/01/04 05:03:39;;;;;;;;;;;8.80;99.90;;;;;;5032308;28;19959;-70
2022/01/04 05:06:05;;;;;;;;;;;8.80;99.90;;;;;;5048948;28;19921;-72
2022/01/04 05:08:30;;;;;;;;;;;8.80;99.90;;;;;;5040308;28;19917;-71
2022/01/04 05:10:57;;;;;;;;;;;8.70;99.90;;;;;;5032645;28;19909;-71
2022/01/04 05:13:23;;;;;;;;;;;8.70;99.90;;;;;;5028452;28;19939;-70
2022/01/04 05:15:49;;;;;;;;;;;8.70;99.90;;;;;;5028056;28;20362;-70
2022/01/04 05:18:14;;;;;;;;;;;8.70;99.90;;;;;;5029499;28;19913;-67
2022/01/04 05:20:40;;;;;;;;;;;8.70;99.90;;;;;;5038808;28;19913;-74
2022/01/04 05:23:05;;;;;;;;;;;8.70;99.90;;;;;;5030097;28;19917;-69
2022/01/04 05:25:31;;;;;;;;;;;8.70;99.90;;;;;;5027270;28;19977;-70
2022/01/04 05:27:56;;;;;;;;;;;8.60;99.90;;;;;;5034223;28;19944;-69
2022/01/04 05:30:22;;;;;;;;;;;8.70;99.90;;;;;;5027747;28;19952;-69
2022/01/04 05:32:47;;;;;;;;;;;8.60;99.90;;;;;;5027824;28;19913;-68
2022/01/04 05:35:13;;;;;;;;;;;8.70;99.90;;;;;;5035313;28;19937;-68
2022/01/04 05:37:38;;;;;;;;;;;8.80;99.90;;;;;;5041954;28;20401;-70
2022/01/04 05:40:04;;;;;;;;;;;8.80;99.90;;;;;;5043373;28;20000;-73
2022/01/04 05:42:30;;;;;;;;;;;8.80;99.90;;;;;;5039317;28;19921;-71
2022/01/04 05:44:55;;;;;;;;;;;8.80;99.90;;;;;;5032472;28;19916;-74
2022/01/04 05:47:21;;;;;;;;;;;8.70;99.90;;;;;;5029113;28;19983;-72
2022/01/04 05:49:46;;;;;;;;;;;8.70;99.90;;;;;;5040025;28;19921;-69
2022/01/04 05:52:11;;;;;;;;;;;8.60;99.90;;;;;;5022437;28;20393;-68
2022/01/04 05:54:37;;;;;;;;;;;8.70;99.90;;;;;;5026608;28;19909;-76
2022/01/04 05:57:03;;;;;;;;;;;8.70;99.90;;;;;;5024181;28;19913;-72
2022/01/04 05:59:28;;;;;;;;;;;8.70;99.90;;;;;;5015993;28;19917;-70
2022/01/04 06:01:54;;;;;;;;;;;8.60;99.90;;;;;;5021602;28;20149;-70
2022/01/04 06:04:19;;;;;;;;;;;8.60;99.90;;;;;;5021318;28;19924;-70
2022/01/04 06:06:44;;;;;;;;;;;8.60;99.90;;;;;;5022234;28;19967;-70
2022/01/04 06:09:19;;;;;;;;;;;8.60;99.90;;;;;;5018885;28;19980;-70
2022/01/04 06:11:58;;;;;;;;;;;8.60;99.90;;;;;;5015692;28;20178;-69
2022/01/04 06:17:08;;;;;;;;;;;8.60;99.90;;;;;;5023598;28;19968;-69
2022/01/04 06:19:34;;;;;;;;;;;8.60;99.90;;;;;;5018631;28;20381;-70
2022/01/04 06:21:59;;;;;;;;;;;8.60;99.90;;;;;;5028068;28;19916;-70
2022/01/04 06:24:25;;;;;;;;;;;8.60;99.90;;;;;;5021651;28;20338;-70
2022/01/04 06:26:52;;;;;;;;;;;8.50;99.90;;;;;;5020913;28;19917;-70
2022/01/04 06:29:19;;;;;;;;;;;8.50;99.90;;;;;;5016145;28;20182;-70
2022/01/04 06:31:45;;;;;;;;;;;8.50;99.90;;;;;;5016846;28;19936;-69
2022/01/04 06:34:11;;;;;;;;;;;8.50;99.90;;;;;;5023789;28;20362;-69
2022/01/04 06:36:36;;;;;;;;;;;8.50;99.90;;;;;;5025098;28;19917;-70
2022/01/04 06:39:02;;;;;;;;;;;8.40;99.90;;;;;;5030820;28;20515;-70
2022/01/04 06:41:28;;;;;;;;;;;8.50;99.90;;;;;;5041560;28;19924;-70
2022/01/04 06:43:53;;;;;;;;;;;8.50;99.90;;;;;;5045846;28;19923;-69
2022/01/04 06:46:19;;;;;;;;;;;8.50;99.90;;;;;;5050999;28;19909;-70
2022/01/04 06:48:44;;;;;;;;;;;8.50;99.90;;;;;;5049916;28;19915;-70
2022/01/04 06:51:10;;;;;;;;;;;8.50;99.90;;;;;;5049239;28;19939;-72
2022/01/04 06:53:35;;;;;;;;;;;8.40;99.90;;;;;;5048787;28;19916;-73
2022/01/04 06:56:01;;;;;;;;;;;8.40;99.90;;;;;;5038678;28;20438;-70
2022/01/04 06:58:26;;;;;;;;;;;8.50;99.90;;;;;;5040163;28;20425;-70
2022/01/04 07:00:52;;;;;;;;;;;8.50;99.90;;;;;;5020560;28;19963;-71
2022/01/04 07:03:17;;;;;;;;;;;8.50;99.90;;;;;;5021484;28;19994;-70
2022/01/04 07:05:43;;;;;;;;;;;8.40;99.90;;;;;;5024286;28;19924;-69
2022/01/04 07:08:08;;;;;;;;;;;8.40;99.90;;;;;;5010882;28;19916;-71
2022/01/04 07:10:34;;;;;;;;;;;8.40;99.90;;;;;;5018607;28;19936;-71
2022/01/04 07:12:59;;;;;;;;;;;8.50;99.90;;;;;;5027665;28;19909;-70
2022/01/04 07:15:25;;;;;;;;;;;8.50;99.90;;;;;;5025048;28;19909;-71
2022/01/04 07:17:50;;;;;;;;;;;8.50;99.90;;;;;;5029502;28;19984;-70
2022/01/04 07:20:16;;;;;;;;;;;8.40;99.90;;;;;;5016284;28;19909;-70
2022/01/04 07:22:41;;;;;;;;;;;8.40;99.90;;;;;;5020553;28;19931;-71
2022/01/04 07:25:07;;;;;;;;;;;8.40;99.90;;;;;;5040533;28;19987;-71
2022/01/04 07:27:33;;;;;;;;;;;8.40;99.90;;;;;;5030108;28;19920;-71
2022/01/04 07:29:58;;;;;;;;;;;8.40;99.90;;;;;;5027280;28;19923;-70
2022/01/04 07:32:24;;;;;;;;;;;8.40;99.90;;;;;;5009727;28;20103;-70
2022/01/04 07:34:50;;;;;;;;;;;8.40;99.90;;;;;;5028127;28;19963;-71
2022/01/04 07:37:15;;;;;;;;;;;8.50;99.90;;;;;;5027195;28;19909;-70
2022/01/04 07:39:41;;;;;;;;;;;8.50;99.90;;;;;;5009985;28;20004;-70
2022/01/04 07:42:06;;;;;;;;;;;8.50;99.90;;;;;;5027866;28;20241;-69
2022/01/04 07:44:32;;;;;;;;;;;8.50;99.90;;;;;;5028942;28;19967;-71
2022/01/04 07:46:58;;;;;;;;;;;8.40;99.90;;;;;;5031310;28;20358;-71
2022/01/04 07:49:24;;;;;;;;;;;8.40;99.90;;;;;;5029748;28;19910;-71
2022/01/04 07:51:49;;;;;;;;;;;8.40;99.90;;;;;;5028723;28;19909;-70
2022/01/04 07:54:15;;;;;;;;;;;8.40;99.90;;;;;;5029217;28;20339;-70
2022/01/04 07:56:40;;;;;;;;;;;8.50;99.90;;;;;;5027563;28;20175;-70
2022/01/04 07:59:06;;;;;;;;;;;8.50;99.90;;;;;;5028716;28;20346;-70
2022/01/04 08:01:32;;;;;;;;;;;8.50;99.90;;;;;;5029208;28;19917;-70
2022/01/04 08:03:59;;;;;;;;;;;8.50;99.90;;;;;;5027344;28;19932;-70
2022/01/04 08:06:24;;;;;;;;;;;8.50;99.90;;;;;;5026473;28;20358;-71
2022/01/04 08:08:50;;;;;;;;;;;8.50;99.90;;;;;;5027017;28;20149;-70
2022/01/04 08:11:15;;;;;;;;;;;8.50;99.90;;;;;;5026985;28;20306;-70
2022/01/04 08:13:41;;;;;;;;;;;8.50;99.90;;;;;;5026837;28;19913;-69
2022/01/04 08:16:06;;;;;;;;;;;8.60;99.90;;;;;;5027048;28;20274;-73
2022/01/04 08:18:32;;;;;;;;;;;8.50;99.90;;;;;;5026685;28;19917;-74
2022/01/04 08:20:58;;;;;;;;;;;8.50;99.90;;;;;;5027789;28;19913;-69
2022/01/04 08:23:27;;;;;;;;;;;8.50;99.90;;;;;;5021002;28;20040;-69
2022/01/04 08:25:53;;;;;;;;;;;8.60;99.90;;;;;;5024038;28;19970;-71
2022/01/04 08:28:19;;;;;;;;;;;8.60;99.90;;;;;;5046633;28;20217;-69
2022/01/04 08:30:44;;;;;;;;;;;8.60;99.90;;;;;;5046904;28;20017;-70
2022/01/04 08:33:10;;;;;;;;;;;8.60;99.90;;;;;;5032843;28;19913;-70
2022/01/04 08:35:36;;;;;;;;;;;8.60;99.90;;;;;;5009065;28;20361;-71
2022/01/04 08:38:01;;;;;;;;;;;8.60;99.90;;;;;;5028291;28;19939;-71
2022/01/04 08:40:27;;;;;;;;;;;8.60;99.90;;;;;;5025904;28;19966;-71
2022/01/04 08:42:53;;;;;;;;;;;8.70;99.90;;;;;;5025850;28;19959;-70
2022/01/04 08:45:21;;;;;;;;;;;8.60;99.90;;;;;;5025946;28;19966;-73
2022/01/04 08:47:47;;;;;;;;;;;8.60;99.90;;;;;;5014353;28;19920;-75
2022/01/04 08:50:14;;;;;;;;;;;8.60;99.90;;;;;;5025456;28;19909;-68
2022/01/04 08:52:40;;;;;;;;;;;8.60;99.90;;;;;;5025523;28;19910;-70
2022/01/04 08:55:06;;;;;;;;;;;8.60;99.90;;;;;;5025342;28;19913;-70
2022/01/04 08:57:32;;;;;;;;;;;8.50;99.90;;;;;;5025565;28;19913;-70
2022/01/04 08:59:57;;;;;;;;;;;8.50;99.90;;;;;;5024621;28;19909;-70
2022/01/04 09:02:23;;;;;;;;;;;8.50;99.90;;;;;;5025253;28;20341;-71
2022/01/04 09:04:49;;;;;;;;;;;8.50;99.90;;;;;;5021996;28;19913;-72
2022/01/04 09:07:15;;;;;;;;;;;8.50;99.90;;;;;;5021836;28;20385;-69
2022/01/04 09:09:40;;;;;;;;;;;8.50;99.90;;;;;;5003283;28;20011;-73
2022/01/04 09:12:06;;;;;;;;;;;8.40;99.90;;;;;;5029869;28;20248;-71
2022/01/04 09:20:00;;;;;;;;;;;8.50;99.90;;;;;;5017424;28;19928;-70
2022/01/04 09:22:25;;;;;;;;;;;8.50;99.90;;;;;;5022171;28;19916;-73
2022/01/04 09:24:51;;;;;;;;;;;8.50;99.90;;;;;;5040054;28;19936;-70
2022/01/04 09:27:16;;;;;;;;;;;8.50;99.90;;;;;;5042475;28;20224;-70
2022/01/04 09:29:42;;;;;;;;;;;8.50;99.90;;;;;;5038040;28;19920;-71
2022/01/04 09:32:13;;;;;;;;;;;8.50;99.90;;;;;;5034734;28;20004;-72
2022/01/04 09:34:39;;;;;;;;;;;8.40;99.90;;;;;;5003212;28;20344;-72
2022/01/04 09:37:04;;;;;;;;;;;8.40;99.90;;;;;;5020521;28;20008;-69
2022/01/04 09:39:30;;;;;;;;;;;8.40;99.90;;;;;;5020468;28;19909;-71
2022/01/04 09:41:56;;;;;;;;;;;8.50;99.90;;;;;;5021570;28;20241;-70
2022/01/04 09:44:22;;;;;;;;;;;8.50;99.90;;;;;;5021561;28;20393;-70
2022/01/04 09:46:48;;;;;;;;;;;8.50;99.90;;;;;;5020677;28;20099;-70
2022/01/04 09:49:14;;;;;;;;;;;8.50;99.90;;;;;;5021347;28;19916;-71
2022/01/04 09:51:40;;;;;;;;;;;8.50;99.90;;;;;;5021862;28;19906;-69
2022/01/04 09:54:06;;;;;;;;;;;8.60;99.90;;;;;;5021842;28;19913;-71
2022/01/04 09:56:31;;;;;;;;;;;8.60;99.90;;;;;;5022437;28;20000;-69
2022/01/04 09:58:57;;;;;;;;;;;8.60;99.90;;;;;;5021745;28;19974;-71
2022/01/04 10:01:24;;;;;;;;;;;8.70;99.90;;;;;;5004318;28;19917;-71
2022/01/04 10:03:49;;;;;;;;;;;8.60;99.90;;;;;;5021195;28;19913;-69
2022/01/04 10:06:15;;;;;;;;;;;8.70;99.90;;;;;;5021697;28;20417;-70
2022/01/04 10:08:51;;;;;;;;;;;8.70;99.90;;;;;;5021724;28;20030;-70
2022/01/04 10:11:27;;;;;;;;;;;8.70;99.90;;;;;;5003887;28;19917;-69
2022/01/04 10:13:53;;;;;;;;;;;8.70;99.90;;;;;;5004234;28;19985;-70
2022/01/04 10:16:18;;;;;;;;;;;8.80;99.90;;;;;;5021083;28;20035;-70
2022/01/04 10:18:47;;;;;;;;;;;8.70;99.90;;;;;;5007546;28;20163;-71
2022/01/04 10:21:13;;;;;;;;;;;8.50;99.90;;;;;;5004922;28;19928;-69
2022/01/04 10:23:43;;;;;;;;;;;8.30;99.90;;;;;;5028705;28;19912;-74
2022/01/04 10:26:08;;;;;;;;;;;8.20;99.90;;;;;;5028279;28;20414;-72
2022/01/04 10:28:36;;;;;;;;;;;8.30;99.90;;;;;;5009553;28;20478;-71
2022/01/04 10:31:03;;;;;;;;;;;8.20;99.90;;;;;;5014510;28;20350;-71
2022/01/04 10:33:31;;;;;;;;;;;8.40;99.90;;;;;;5024122;28;20502;-72
2022/01/04 10:35:57;;;;;;;;;;;8.40;99.90;;;;;;5021862;28;20007;-72
2022/01/04 10:38:23;;;;;;;;;;;8.20;99.90;;;;;;5020896;28;20108;-72
2022/01/04 10:41:04;;;;;;;;;;;8.30;99.90;;;;;;5021133;28;20152;-74
2022/01/04 10:43:31;;;;;;;;;;;8.10;99.90;;;;;;5023339;28;19913;-74
2022/01/04 10:45:57;;;;;;;;;;;8.10;99.90;;;;;;5027396;28;19921;-71
2022/01/04 10:48:24;;;;;;;;;;;8.10;99.90;;;;;;5027049;28;19924;-71
2022/01/04 10:50:54;;;;;;;;;;;8.00;99.90;;;;;;5027454;28;19909;-73
2022/01/04 10:53:28;;;;;;;;;;;7.90;99.90;;;;;;5045315;28;19917;-72
2022/01/04 10:55:55;;;;;;;;;;;7.90;99.90;;;;;;5022188;28;19913;-71
2022/01/04 10:58:22;;;;;;;;;;;7.90;99.90;;;;;;5030275;28;19913;-74
2022/01/04 11:00:53;;;;;;;;;;;7.90;99.90;;;;;;5028822;28;19913;-72
2022/01/04 11:03:23;;;;;;;;;;;7.90;99.90;;;;;;5019917;28;19963;-71
2022/01/04 11:05:51;;;;;;;;;;;7.80;99.90;;;;;;5026046;28;19909;-73
2022/01/04 11:08:17;;;;;;;;;;;7.80;99.90;;;;;;5025215;28;20436;-73
2022/01/04 11:10:43;;;;;;;;;;;7.80;99.90;;;;;;5012164;28;19908;-71
2022/01/04 11:13:08;;;;;;;;;;;7.80;99.90;;;;;;5019630;28;19932;-71
2022/01/04 11:15:34;;;;;;;;;;;7.70;99.90;;;;;;5035428;28;19975;-71
2022/01/04 11:18:00;;;;;;;;;;;7.80;99.90;;;;;;5030161;28;19916;-74
2022/01/04 11:20:25;;;;;;;;;;;7.80;99.90;;;;;;5030819;28;20113;-71
2022/01/04 11:22:51;;;;;;;;;;;7.90;99.90;;;;;;5032680;28;19976;-70
2022/01/04 11:25:21;;;;;;;;;;;7.90;99.90;;;;;;5032882;28;20145;-71
2022/01/04 11:27:47;;;;;;;;;;;7.80;99.90;;;;;;5017301;28;19920;-71
2022/01/04 11:30:13;;;;;;;;;;;7.90;99.90;;;;;;5042256;28;20849;-70
2022/01/04 11:32:40;;;;;;;;;;;7.90;99.90;;;;;;5041267;28;19913;-70
2022/01/04 11:35:09;;;;;;;;;;;8.00;99.90;;;;;;5029988;28;19981;-71
2022/01/04 11:37:35;;;;;;;;;;;8.10;99.90;;;;;;5048660;28;19981;-71
2022/01/04 11:40:20;;;;;;;;;;;8.20;99.90;;;;;;5032936;28;19935;-70
2022/01/04 11:42:46;;;;;;;;;;;8.20;99.90;;;;;;5034466;28;19963;-69
2022/01/04 11:45:11;;;;;;;;;;;8.20;99.90;;;;;;5031386;28;19917;-70
2022/01/04 11:47:38;;;;;;;;;;;8.20;99.90;;;;;;5029583;28;19909;-70
2022/01/04 11:50:23;;;;;;;;;;;8.10;99.90;;;;;;5009986;28;20562;-71
2022/01/04 11:52:50;;;;;;;;;;;8.10;99.90;;;;;;5027018;28;19909;-71
2022/01/04 11:55:17;;;;;;;;;;;8.00;99.90;;;;;;5024193;28;19913;-71
2022/01/04 11:57:43;;;;;;;;;;;8.00;99.90;;;;;;5024118;28;19943;-71
2022/01/04 12:00:08;;;;;;;;;;;8.00;99.90;;;;;;5014007;28;20036;-72
2022/01/04 12:02:39;;;;;;;;;;;7.90;99.90;;;;;;5027060;28;19917;-71
2022/01/04 12:05:13;;;;;;;;;;;7.80;99.90;;;;;;5032144;28;20061;-74
2022/01/04 12:07:38;;;;;;;;;;;7.80;99.90;;;;;;5030491;28;19920;-71
2022/01/04 12:10:22;;;;;;;;;;;7.70;99.90;;;;;;5018840;28;19913;-69
2022/01/04 12:13:09;;;;;;;;;;;7.70;99.90;;;;;;5031188;28;20410;-69
2022/01/04 12:15:34;;;;;;;;;;;7.70;99.90;;;;;;5008233;28;19996;-70
2022/01/04 12:18:01;;;;;;;;;;;7.70;99.90;;;;;;5031681;28;20605;-70
2022/01/04 12:20:41;;;;;;;;;;;7.70;99.90;;;;;;5021232;28;19913;-70
2022/01/04 12:23:25;;;;;;;;;;;7.70;99.90;;;;;;5026202;28;19914;-69
2022/01/04 12:26:03;;;;;;;;;;;7.90;99.90;;;;;;5037438;28;19920;-69
2022/01/04 12:28:52;;;;;;;;;;;8.00;99.90;;;;;;5028415;28;20184;-69
2022/01/04 12:31:18;;;;;;;;;;;7.90;99.90;;;;;;4971179;28;20012;-70
2022/01/04 12:33:46;;;;;;;;;;;7.80;99.90;;;;;;4993603;28;20002;-70
2022/01/04 12:36:23;;;;;;;;;;;7.70;99.90;;;;;;4999860;28;20315;-70
2022/01/04 12:38:49;;;;;;;;;;;7.70;99.90;;;;;;5002109;28;19909;-71
2022/01/04 12:41:15;;;;;;;;;;;7.60;99.90;;;;;;5001734;28;19916;-70
2022/01/04 12:43:40;;;;;;;;;;;7.50;99.90;;;;;;5012161;28;20004;-71
2022/01/04 12:46:06;;;;;;;;;;;7.60;99.90;;;;;;5015396;28;20623;-71
2022/01/04 12:48:48;;;;;;;;;;;7.70;99.90;;;;;;4997743;28;19936;-72
2022/01/04 12:51:21;;;;;;;;;;;7.60;99.90;;;;;;5015950;28;19909;-71
2022/01/04 12:53:46;;;;;;;;;;;7.60;99.90;;;;;;5008399;28;19910;-72
2022/01/04 12:56:12;;;;;;;;;;;7.60;99.90;;;;;;5016586;28;20390;-71
2022/01/04 12:58:37;;;;;;;;;;;7.50;99.90;;;;;;4994453;28;19909;-69
2022/01/04 13:01:03;;;;;;;;;;;7.50;99.90;;;;;;5010588;28;20386;-71
2022/01/04 13:03:31;;;;;;;;;;;7.50;99.90;;;;;;4992963;28;20130;-73
2022/01/04 13:06:03;;;;;;;;;;;7.50;99.90;;;;;;5010083;28;20012;-73
2022/01/04 13:08:29;;;;;;;;;;;7.40;99.90;;;;;;5010474;28;19910;-70
2022/01/04 13:11:04;;;;;;;;;;;7.40;99.90;;;;;;5008430;28;19932;-71
2022/01/04 13:13:30;;;;;;;;;;;7.40;99.90;;;;;;5009334;28;20303;-72
2022/01/04 13:16:14;;;;;;;;;;;7.40;99.90;;;;;;5009072;28;20413;-71
2022/01/04 13:18:40;;;;;;;;;;;7.30;99.90;;;;;;5007511;28;19913;-73
2022/01/04 13:21:06;;;;;;;;;;;7.30;99.90;;;;;;5007536;28;19910;-72
2022/01/04 13:23:36;;;;;;;;;;;7.10;99.90;;;;;;5006965;28;20315;-73
2022/01/04 13:26:01;;;;;;;;;;;7.10;99.90;;;;;;5007025;28;20402;-68
2022/01/04 13:28:27;;;;;;;;;;;7.00;99.90;;;;;;5008302;28;19985;-71
2022/01/04 13:30:53;;;;;;;;;;;6.90;99.90;;;;;;5026014;28;20006;-71
2022/01/04 13:33:23;;;;;;;;;;;6.90;99.90;;;;;;5029880;28;19967;-72
2022/01/04 13:35:49;;;;;;;;;;;6.80;99.90;;;;;;5015188;28;20169;-71
2022/01/04 13:38:20;;;;;;;;;;;6.80;99.90;;;;;;5038845;28;19909;-70
2022/01/04 13:40:46;;;;;;;;;;;6.80;99.90;;;;;;5031979;28;19954;-71
2022/01/04 13:43:16;;;;;;;;;;;6.80;99.90;;;;;;5038788;28;19921;-72
2022/01/04 13:46:02;;;;;;;;;;;6.80;99.90;;;;;;5037192;28;19909;-70
2022/01/04 13:48:28;;;;;;;;;;;6.80;99.90;;;;;;5046655;28;19909;-72
2022/01/04 13:51:01;;;;;;;;;;;6.70;99.90;;;;;;5047484;28;20392;-72
2022/01/04 13:53:33;;;;;;;;;;;6.70;99.90;;;;;;5045587;28;19916;-73
2022/01/04 13:55:59;;;;;;;;;;;6.70;99.90;;;;;;5016804;28;19936;-73
2022/01/04 13:58:29;;;;;;;;;;;6.60;99.90;;;;;;4999762;28;19921;-71
2022/01/04 14:00:54;;;;;;;;;;;6.70;99.90;;;;;;5017669;28;20418;-70
2022/01/04 14:03:30;;;;;;;;;;;6.60;99.90;;;;;;5016217;28;19965;-70
2022/01/04 14:05:58;;;;;;;;;;;6.60;99.90;;;;;;5012402;28;19941;-72
2022/01/04 14:08:43;;;;;;;;;;;6.70;99.90;;;;;;5021655;28;20165;-75
2022/01/04 14:11:08;;;;;;;;;;;6.50;99.90;;;;;;5024557;28;19935;-69
2022/01/04 14:13:37;;;;;;;;;;;6.50;99.90;;;;;;5009689;28;20410;-69
2022/01/04 14:16:15;;;;;;;;;;;6.40;99.90;;;;;;5012833;28;20003;-71
2022/01/04 14:18:59;;;;;;;;;;;6.40;99.90;;;;;;5013123;28;20325;-70
2022/01/04 14:21:34;;;;;;;;;;;6.50;99.90;;;;;;5012240;28;20003;-70
2022/01/04 14:24:00;;;;;;;;;;;6.40;99.90;;;;;;5025032;28;19909;-69
2022/01/04 14:26:27;;;;;;;;;;;6.40;99.90;;;;;;5031954;28;19936;-73
2022/01/04 14:28:53;;;;;;;;;;;6.40;99.90;;;;;;5007643;28;19922;-69
2022/01/04 14:31:18;;;;;;;;;;;6.40;99.90;;;;;;5006607;28;19967;-70
2022/01/04 14:33:44;;;;;;;;;;;6.40;99.90;;;;;;5017103;28;20060;-72
2022/01/04 14:36:09;;;;;;;;;;;6.40;99.90;;;;;;5008606;28;19914;-70
2022/01/04 14:38:35;;;;;;;;;;;6.50;99.90;;;;;;5015208;28;19960;-70
2022/01/04 14:41:00;;;;;;;;;;;6.30;99.90;;;;;;5005664;28;19909;-72